createdAt,value
2018-12-03T00:02:11.479Z,100.00
2018-12-03T00:04:42.999Z,100.00
2018-12-03T00:07:14.655Z,100.00
2018-12-03T00:09:43.956Z,100.00
2018-12-03T00:12:13.255Z,100.00
2018-12-03T00:14:42.247Z,100.00
2018-12-03T00:17:12.060Z,100.00
2018-12-03T00:19:41.050Z,100.00
2018-12-03T00:22:10.045Z,100.00
2018-12-03T00:24:39.900Z,100.00
2018-12-03T00:27:08.967Z,100.00
2018-12-03T00:29:38.663Z,100.00
2018-12-03T00:32:08.064Z,100.00
2018-12-03T00:34:37.056Z,100.00
2018-12-03T00:37:06.111Z,100.00
2018-12-03T00:39:34.838Z,100.00
2018-12-03T00:42:04.302Z,100.00
2018-12-03T00:44:33.617Z,100.00
2018-12-03T00:47:02.479Z,100.00
2018-12-03T00:49:31.489Z,100.00
2018-12-03T00:52:00.197Z,100.00
2018-12-03T00:54:29.197Z,100.00
2018-12-03T00:56:58.259Z,100.00
2018-12-03T00:59:27.659Z,100.00
2018-12-03T01:01:56.678Z,100.00
2018-12-03T01:04:25.745Z,100.00
2018-12-03T01:06:54.421Z,100.00
2018-12-03T01:09:23.467Z,100.00
2018-12-03T01:11:52.767Z,100.00
2018-12-03T01:14:21.759Z,100.00
2018-12-03T01:16:50.430Z,100.00
2018-12-03T01:19:19.746Z,100.00
2018-12-03T01:21:48.764Z,100.00
2018-12-03T01:24:18.346Z,100.00
2018-12-03T01:26:48.189Z,100.00
2018-12-03T01:29:17.559Z,100.00
2018-12-03T01:31:46.864Z,100.00
2018-12-03T01:34:15.530Z,100.00
2018-12-03T01:36:44.573Z,100.00
2018-12-03T01:39:14.340Z,100.00
2018-12-03T01:41:44.267Z,100.00
2018-12-03T01:44:13.771Z,100.00
2018-12-03T01:46:42.833Z,100.00
2018-12-03T01:49:12.170Z,100.00
2018-12-03T01:51:43.102Z,100.00
2018-12-03T01:54:12.228Z,100.00
2018-12-03T01:56:41.192Z,100.00
2018-12-03T01:59:10.405Z,100.00
2018-12-03T02:01:39.058Z,100.00
2018-12-03T02:04:08.069Z,100.00
2018-12-03T02:06:38.467Z,100.00
2018-12-03T02:09:09.217Z,100.00
2018-12-03T02:11:38.189Z,100.00
2018-12-03T02:14:07.740Z,100.00
2018-12-03T02:16:37.439Z,100.00
2018-12-03T02:19:06.587Z,100.00
2018-12-03T02:21:35.278Z,100.00
2018-12-03T02:24:04.618Z,100.00
2018-12-03T02:26:33.921Z,100.00
2018-12-03T02:29:02.595Z,100.00
2018-12-03T02:31:31.907Z,100.00
2018-12-03T02:34:00.856Z,100.00
2018-12-03T02:36:30.193Z,100.00
2018-12-03T02:38:59.868Z,100.00
2018-12-03T02:41:28.899Z,100.00
2018-12-03T02:43:57.659Z,100.00
2018-12-03T02:46:27.063Z,100.00
2018-12-03T02:48:56.799Z,100.00
2018-12-03T02:51:25.790Z,100.00
2018-12-03T02:53:54.460Z,99.77
2018-12-03T02:56:23.157Z,100.00
2018-12-03T02:58:52.140Z,100.00
2018-12-03T03:01:21.107Z,100.00
2018-12-03T03:03:50.121Z,100.00
2018-12-03T03:06:19.511Z,100.00
2018-12-03T03:08:48.211Z,100.00
2018-12-03T03:11:16.892Z,100.00
2018-12-03T03:13:45.987Z,99.96
2018-12-03T03:16:16.235Z,100.00
2018-12-03T03:18:45.539Z,100.00
2018-12-03T03:21:15.249Z,99.55
2018-12-03T03:23:43.948Z,99.92
2018-12-03T03:26:13.335Z,99.28
2018-12-03T03:28:42.031Z,98.83
2018-12-03T03:31:11.013Z,99.16
2018-12-03T03:33:40.743Z,99.98
2018-12-03T03:36:09.420Z,99.22
2018-12-03T03:38:38.486Z,99.75
2018-12-03T03:41:07.655Z,99.85
2018-12-03T03:43:36.765Z,99.92
2018-12-03T03:46:05.946Z,100.00
2018-12-03T03:48:34.959Z,99.00
2018-12-03T03:51:03.935Z,99.72
2018-12-03T03:53:32.748Z,100.00
2018-12-03T03:56:01.714Z,99.95
2018-12-03T03:58:30.728Z,99.86
2018-12-03T04:00:59.698Z,99.70
2018-12-03T04:03:28.736Z,100.00
2018-12-03T04:05:58.860Z,100.00
2018-12-03T04:08:27.927Z,100.00
2018-12-03T04:10:56.964Z,100.00
2018-12-03T04:13:25.664Z,100.00
2018-12-03T04:15:54.311Z,100.00
2018-12-03T04:18:23.500Z,100.00
2018-12-03T04:20:52.175Z,100.00
2018-12-03T04:23:21.221Z,100.00
2018-12-03T04:25:49.894Z,100.00
2018-12-03T04:28:21.308Z,100.00
2018-12-03T04:30:49.985Z,100.00
2018-12-03T04:33:18.980Z,100.00
2018-12-03T04:35:47.956Z,100.00
2018-12-03T04:38:16.667Z,100.00
2018-12-03T04:40:45.636Z,100.00
2018-12-03T04:43:14.653Z,100.00
2018-12-03T04:45:43.971Z,100.00
2018-12-03T04:48:12.646Z,100.00
2018-12-03T04:50:42.068Z,100.00
2018-12-03T04:53:11.055Z,100.00
2018-12-03T04:55:40.352Z,100.00
2018-12-03T04:58:09.029Z,100.00
2018-12-03T05:00:38.338Z,100.00
2018-12-03T05:03:07.371Z,100.00
2018-12-03T05:05:36.735Z,100.00
2018-12-03T05:08:05.910Z,100.00
2018-12-03T05:10:35.330Z,100.00
2018-12-03T05:13:04.427Z,100.00
2018-12-03T05:15:34.276Z,100.00
2018-12-03T05:18:03.560Z,100.00
2018-12-03T05:20:32.944Z,100.00
2018-12-03T05:23:01.998Z,100.00
2018-12-03T05:25:31.339Z,100.00
2018-12-03T05:28:00.332Z,100.00
2018-12-03T05:30:29.011Z,100.00
2018-12-03T05:32:57.718Z,100.00
2018-12-03T05:35:29.936Z,100.00
2018-12-03T05:37:58.844Z,100.00
2018-12-03T05:40:31.502Z,100.00
2018-12-03T05:43:00.512Z,100.00
2018-12-03T05:45:29.482Z,100.00
2018-12-03T05:47:58.196Z,100.00
2018-12-03T05:50:27.260Z,100.00
2018-12-03T05:52:56.278Z,100.00
2018-12-03T05:55:25.351Z,100.00
2018-12-03T05:57:54.699Z,100.00
2018-12-03T06:00:24.521Z,100.00
2018-12-03T06:02:53.504Z,100.00
2018-12-03T06:05:23.021Z,100.00
2018-12-03T06:07:52.097Z,100.00
2018-12-03T06:10:21.623Z,100.00
2018-12-03T06:12:52.337Z,100.00
2018-12-03T06:15:21.462Z,100.00
2018-12-03T06:17:51.877Z,100.00
2018-12-03T06:20:21.871Z,100.00
2018-12-03T06:22:53.942Z,100.00
2018-12-03T06:25:29.647Z,100.00
2018-12-03T06:27:59.715Z,100.00
2018-12-03T06:30:29.015Z,100.00
2018-12-03T06:32:58.418Z,100.00
2018-12-03T06:35:27.502Z,100.00
2018-12-03T06:37:56.171Z,100.00
2018-12-03T06:40:29.542Z,100.00
2018-12-03T06:42:59.422Z,100.00
2018-12-03T06:45:28.857Z,100.00
2018-12-03T06:48:02.657Z,100.00
2018-12-03T06:50:31.740Z,100.00
2018-12-03T06:53:01.110Z,100.00
2018-12-03T06:55:30.415Z,100.00
2018-12-03T06:57:59.815Z,100.00
2018-12-03T07:00:29.223Z,100.00
2018-12-03T07:02:58.416Z,100.00
2018-12-03T07:05:27.970Z,100.00
2018-12-03T07:07:58.206Z,100.00
2018-12-03T07:10:27.533Z,100.00
2018-12-03T07:12:59.267Z,100.00
2018-12-03T07:15:29.419Z,100.00
2018-12-03T07:17:59.134Z,100.00
2018-12-03T07:20:28.227Z,100.00
2018-12-03T07:22:57.526Z,100.00
2018-12-03T07:25:27.239Z,100.00
2018-12-03T07:27:56.164Z,100.00
2018-12-03T07:30:26.148Z,100.00
2018-12-03T07:32:55.377Z,100.00
2018-12-03T07:35:24.702Z,100.00
2018-12-03T07:37:57.238Z,100.00
2018-12-03T07:40:26.571Z,100.00
2018-12-03T07:42:55.565Z,100.00
2018-12-03T07:45:25.262Z,100.00
2018-12-03T07:47:54.270Z,100.00
2018-12-03T07:50:24.474Z,100.00
2018-12-03T07:52:53.687Z,99.84
2018-12-03T07:55:24.162Z,99.25
2018-12-03T07:58:15.874Z,99.04
2018-12-03T08:00:47.199Z,99.07
2018-12-03T08:03:17.146Z,98.17
2018-12-03T08:05:47.417Z,97.98
2018-12-03T08:08:16.974Z,97.98
2018-12-03T08:10:50.947Z,98.20
2018-12-03T08:13:21.865Z,97.51
2018-12-03T08:15:51.243Z,98.01
2018-12-03T08:18:21.589Z,96.87
2018-12-03T08:21:10.155Z,97.51
2018-12-03T08:24:02.667Z,97.31
2018-12-03T08:26:32.146Z,96.60
2018-12-03T08:29:01.456Z,97.05
2018-12-03T08:31:30.851Z,97.91
2018-12-03T08:33:59.885Z,98.81
2018-12-03T08:36:28.947Z,98.05
2018-12-03T08:38:59.790Z,97.33
2018-12-03T08:41:29.896Z,96.91
2018-12-03T08:43:59.200Z,97.66
2018-12-03T08:46:28.498Z,97.18
2018-12-03T08:48:58.108Z,96.59
2018-12-03T08:51:27.710Z,96.14
2018-12-03T08:53:57.044Z,96.83
2018-12-03T08:56:25.789Z,95.98
2018-12-03T08:58:55.211Z,95.70
2018-12-03T09:01:24.454Z,94.57
2018-12-03T09:04:13.749Z,95.40
2018-12-03T09:06:42.426Z,95.70
2018-12-03T09:09:13.907Z,96.34
2018-12-03T09:11:47.373Z,96.66
2018-12-03T09:14:16.664Z,97.83
2018-12-03T09:16:45.568Z,98.76
2018-12-03T09:19:14.547Z,98.16
2018-12-03T09:21:43.244Z,98.90
2018-12-03T09:24:12.295Z,99.44
2018-12-03T09:26:42.523Z,99.39
2018-12-03T09:29:11.219Z,100.00
2018-12-03T09:31:40.229Z,100.00
2018-12-03T09:34:09.289Z,100.00
2018-12-03T09:36:39.355Z,100.00
2018-12-03T09:39:15.934Z,100.00
2018-12-03T09:41:45.480Z,99.59
2018-12-03T09:44:14.166Z,97.50
2018-12-03T09:46:42.967Z,96.38
2018-12-03T09:49:11.926Z,95.52
2018-12-03T09:51:40.598Z,94.99
2018-12-03T09:54:10.723Z,94.49
2018-12-03T09:56:44.350Z,94.39
2018-12-03T09:59:17.828Z,94.14
2018-12-03T10:01:49.133Z,95.19
2018-12-03T10:04:23.238Z,96.63
2018-12-03T10:06:52.410Z,97.28
2018-12-03T10:09:21.090Z,97.72
2018-12-03T10:11:50.983Z,96.10
2018-12-03T10:14:21.767Z,95.51
2018-12-03T10:16:50.451Z,95.84
2018-12-03T10:19:19.542Z,94.75
2018-12-03T10:21:48.486Z,94.48
2018-12-03T10:24:18.228Z,95.91
2018-12-03T10:26:47.069Z,95.83
2018-12-03T10:29:17.893Z,95.03
2018-12-03T10:31:48.569Z,95.01
2018-12-03T10:34:21.045Z,94.86
2018-12-03T10:36:57.777Z,94.68
2018-12-03T10:39:28.853Z,94.41
2018-12-03T10:42:07.572Z,95.90
2018-12-03T10:44:36.873Z,96.48
2018-12-03T10:47:06.245Z,96.42
2018-12-03T10:49:35.150Z,96.09
2018-12-03T10:52:04.086Z,96.67
2018-12-03T10:54:37.965Z,96.20
2018-12-03T10:57:09.630Z,96.59
2018-12-03T10:59:38.619Z,96.70
2018-12-03T11:02:30.021Z,96.24
2018-12-03T11:05:16.944Z,96.12
2018-12-03T11:07:46.969Z,96.03
2018-12-03T11:10:15.976Z,95.50
2018-12-03T11:12:50.873Z,96.27
2018-12-03T11:15:20.543Z,96.92
2018-12-03T11:17:49.642Z,95.95
2018-12-03T11:20:20.295Z,95.40
2018-12-03T11:22:49.625Z,95.63
2018-12-03T11:25:19.314Z,95.37
2018-12-03T11:27:49.818Z,95.93
2018-12-03T11:30:19.235Z,95.34
2018-12-03T11:32:48.460Z,94.70
2018-12-03T11:35:23.433Z,94.21
2018-12-03T11:37:54.492Z,94.86
2018-12-03T11:40:43.664Z,95.48
2018-12-03T11:43:12.340Z,95.59
2018-12-03T11:45:41.390Z,94.11
2018-12-03T11:48:11.448Z,93.61
2018-12-03T11:50:40.331Z,93.33
2018-12-03T11:53:09.329Z,93.86
2018-12-03T11:55:38.380Z,93.09
2018-12-03T11:58:07.409Z,93.44
2018-12-03T12:00:36.066Z,93.15
2018-12-03T12:03:06.646Z,92.35
2018-12-03T12:05:36.001Z,93.24
2018-12-03T12:08:05.281Z,92.39
2018-12-03T12:10:33.959Z,91.60
2018-12-03T12:13:05.870Z,91.82
2018-12-03T12:15:36.540Z,91.48
2018-12-03T12:18:05.332Z,92.31
2018-12-03T12:20:34.031Z,91.92
2018-12-03T12:23:02.736Z,90.75
2018-12-03T12:25:31.776Z,90.94
2018-12-03T12:28:01.069Z,90.48
2018-12-03T12:30:30.068Z,89.79
2018-12-03T12:32:59.414Z,89.91
2018-12-03T12:35:28.114Z,90.19
2018-12-03T12:37:58.624Z,90.33
2018-12-03T12:40:27.921Z,90.17
2018-12-03T12:42:57.938Z,90.20
2018-12-03T12:45:43.638Z,90.67
2018-12-03T12:48:13.229Z,90.07
2018-12-03T12:50:42.510Z,90.56
2018-12-03T12:53:11.192Z,89.56
2018-12-03T12:55:40.462Z,89.27
2018-12-03T12:58:09.574Z,88.84
2018-12-03T13:00:38.576Z,89.62
2018-12-03T13:03:07.487Z,89.64
2018-12-03T13:05:36.192Z,90.64
2018-12-03T13:08:04.934Z,90.63
2018-12-03T13:10:34.322Z,91.60
2018-12-03T13:13:03.377Z,91.44
2018-12-03T13:15:32.050Z,92.17
2018-12-03T13:18:00.736Z,92.43
2018-12-03T13:20:30.380Z,92.45
2018-12-03T13:22:59.433Z,92.87
2018-12-03T13:25:28.567Z,91.92
2018-12-03T13:27:58.143Z,92.41
2018-12-03T13:30:27.570Z,92.69
2018-12-03T13:32:56.919Z,92.33
2018-12-03T13:35:25.787Z,92.94
2018-12-03T13:37:55.504Z,92.25
2018-12-03T13:40:24.517Z,91.35
2018-12-03T13:42:54.767Z,90.65
2018-12-03T13:45:26.006Z,90.81
2018-12-03T13:47:57.075Z,91.61
2018-12-03T13:50:26.070Z,91.45
2018-12-03T13:52:56.627Z,91.37
2018-12-03T13:55:25.714Z,92.05
2018-12-03T13:58:04.122Z,91.51
2018-12-03T14:00:33.050Z,91.76
2018-12-03T14:03:26.225Z,91.49
2018-12-03T14:06:26.701Z,91.04
2018-12-03T14:09:41.237Z,90.92
2018-12-03T14:12:46.605Z,90.56
2018-12-03T14:15:48.317Z,89.96
2018-12-03T14:18:40.931Z,89.77
2018-12-03T14:21:31.984Z,89.59
2018-12-03T14:24:03.842Z,90.03
2018-12-03T14:26:33.406Z,90.01
2018-12-03T14:29:02.449Z,91.48
2018-12-03T14:31:31.744Z,92.08
2018-12-03T14:34:00.469Z,93.09
2018-12-03T14:36:29.485Z,92.88
2018-12-03T14:38:58.524Z,92.67
2018-12-03T14:41:27.619Z,92.59
2018-12-03T14:43:57.534Z,93.31
2018-12-03T14:46:27.975Z,93.19
2018-12-03T14:48:56.949Z,92.86
2018-12-03T14:51:25.644Z,92.08
2018-12-03T14:53:54.941Z,91.54
2018-12-03T14:56:24.042Z,91.29
2018-12-03T14:58:53.042Z,91.33
2018-12-03T15:01:22.492Z,90.45
2018-12-03T15:03:51.520Z,90.98
2018-12-03T15:06:20.722Z,91.30
2018-12-03T15:08:50.106Z,91.62
2018-12-03T15:11:19.519Z,91.16
2018-12-03T15:13:48.518Z,90.78
2018-12-03T15:16:17.200Z,90.78
2018-12-03T15:18:46.339Z,90.76
2018-12-03T15:21:15.639Z,90.08
2018-12-03T15:23:44.691Z,90.65
2018-12-03T15:26:13.993Z,89.95
2018-12-03T15:28:42.690Z,89.90
2018-12-03T15:31:11.369Z,89.89
2018-12-03T15:33:40.434Z,90.19
2018-12-03T15:36:09.374Z,90.67
2018-12-03T15:38:38.520Z,89.90
2018-12-03T15:41:07.898Z,89.87
2018-12-03T15:43:38.079Z,89.77
2018-12-03T15:46:07.349Z,89.26
2018-12-03T15:48:36.393Z,89.87
2018-12-03T15:51:05.806Z,89.95
2018-12-03T15:53:35.689Z,89.98
2018-12-03T15:56:04.980Z,90.27
2018-12-03T15:58:34.381Z,90.43
2018-12-03T16:01:03.340Z,89.70
2018-12-03T16:03:34.414Z,89.66
2018-12-03T16:06:03.727Z,90.28
2018-12-03T16:08:32.704Z,90.02
2018-12-03T16:11:02.009Z,89.83
2018-12-03T16:13:31.001Z,89.53
2018-12-03T16:15:59.730Z,88.96
2018-12-03T16:18:28.425Z,88.96
2018-12-03T16:20:57.103Z,88.71
2018-12-03T16:23:25.876Z,89.05
2018-12-03T16:25:54.583Z,88.59
2018-12-03T16:28:23.584Z,88.54
2018-12-03T16:30:52.972Z,88.40
2018-12-03T16:33:22.734Z,87.77
2018-12-03T16:35:51.966Z,88.78
2018-12-03T16:38:21.026Z,88.42
2018-12-03T16:40:49.703Z,88.81
2018-12-03T16:43:19.836Z,88.36
2018-12-03T16:45:49.235Z,89.04
2018-12-03T16:48:18.740Z,89.49
2018-12-03T16:50:48.040Z,89.74
2018-12-03T16:53:18.366Z,89.20
2018-12-03T16:55:48.278Z,88.90
2018-12-03T16:58:17.407Z,88.96
2018-12-03T17:00:46.775Z,89.29
2018-12-03T17:03:15.772Z,89.02
2018-12-03T17:05:44.474Z,89.28
2018-12-03T17:08:15.183Z,89.01
2018-12-03T17:10:44.899Z,89.31
2018-12-03T17:13:14.615Z,88.98
2018-12-03T17:15:44.012Z,88.79
2018-12-03T17:18:15.297Z,88.99
2018-12-03T17:21:29.846Z,88.75
2018-12-03T17:24:20.344Z,88.73
2018-12-03T17:26:49.531Z,88.54
2018-12-03T17:29:19.096Z,89.08
2018-12-03T17:31:48.419Z,89.37
2018-12-03T17:34:17.146Z,89.14
2018-12-03T17:36:46.190Z,88.89
2018-12-03T17:39:15.498Z,88.46
2018-12-03T17:41:46.388Z,88.65
2018-12-03T17:44:16.525Z,88.85
2018-12-03T17:46:45.207Z,88.96
2018-12-03T17:49:13.912Z,88.86
2018-12-03T17:51:42.876Z,88.67
2018-12-03T17:54:11.883Z,88.72
2018-12-03T17:56:41.985Z,89.50
2018-12-03T17:59:10.995Z,88.69
2018-12-03T18:01:40.324Z,89.22
2018-12-03T18:04:14.744Z,88.99
2018-12-03T18:06:44.226Z,88.59
2018-12-03T18:09:12.972Z,88.60
2018-12-03T18:11:41.828Z,89.78
2018-12-03T18:14:10.558Z,88.71
2018-12-03T18:16:39.916Z,88.33
2018-12-03T18:19:09.510Z,88.22
2018-12-03T18:21:38.471Z,88.75
2018-12-03T18:24:07.508Z,89.80
2018-12-03T18:26:37.591Z,88.70
2018-12-03T18:29:07.643Z,88.57
2018-12-03T18:31:36.377Z,89.38
2018-12-03T18:34:05.731Z,90.10
2018-12-03T18:36:35.136Z,89.79
2018-12-03T18:39:05.012Z,89.35
2018-12-03T18:41:34.715Z,89.52
2018-12-03T18:44:03.688Z,88.91
2018-12-03T18:46:32.379Z,88.76
2018-12-03T18:49:24.122Z,88.75
2018-12-03T18:51:52.839Z,88.46
2018-12-03T18:54:22.159Z,88.80
2018-12-03T18:56:50.851Z,88.35
2018-12-03T18:59:20.234Z,88.81
2018-12-03T19:01:49.307Z,88.68
2018-12-03T19:04:18.694Z,88.16
2018-12-03T19:06:47.728Z,88.49
2018-12-03T19:09:16.840Z,88.93
2018-12-03T19:11:46.183Z,87.51
2018-12-03T19:14:15.627Z,86.86
2018-12-03T19:16:44.770Z,87.25
2018-12-03T19:19:14.128Z,87.76
2018-12-03T19:21:43.674Z,88.05
2018-12-03T19:24:13.030Z,88.02
2018-12-03T19:26:42.151Z,87.75
2018-12-03T19:29:12.038Z,87.50
2018-12-03T19:31:42.651Z,87.48
2018-12-03T19:34:13.519Z,87.06
2018-12-03T19:36:44.621Z,86.82
2018-12-03T19:39:31.013Z,86.98
2018-12-03T19:41:59.710Z,87.13
2018-12-03T19:44:28.740Z,87.66
2018-12-03T19:46:57.478Z,87.92
2018-12-03T19:49:27.285Z,87.13
2018-12-03T19:51:57.702Z,86.87
2018-12-03T19:54:31.359Z,87.13
2018-12-03T19:57:02.738Z,87.20
2018-12-03T19:59:35.144Z,87.02
2018-12-03T20:02:04.183Z,86.70
2018-12-03T20:04:52.523Z,86.86
2018-12-03T20:07:21.916Z,86.74
2018-12-03T20:09:55.083Z,86.91
2018-12-03T20:12:24.119Z,86.78
2018-12-03T20:14:53.164Z,86.70
2018-12-03T20:17:28.636Z,87.59
2018-12-03T20:19:58.057Z,87.01
2018-12-03T20:22:31.736Z,87.13
2018-12-03T20:25:00.414Z,87.07
2018-12-03T20:27:53.987Z,87.09
2018-12-03T20:31:06.263Z,86.72
2018-12-03T20:33:51.658Z,87.07
2018-12-03T20:37:17.114Z,87.63
2018-12-03T20:40:20.791Z,86.91
2018-12-03T20:43:11.140Z,86.36
2018-12-03T20:46:32.862Z,86.44
2018-12-03T20:49:22.917Z,86.44
2018-12-03T20:51:57.543Z,85.34
2018-12-03T20:54:27.128Z,85.34
2018-12-03T20:56:56.272Z,85.64
2018-12-03T20:59:25.298Z,85.31
2018-12-03T21:01:54.356Z,85.10
2018-12-03T21:04:25.655Z,85.69
2018-12-03T21:06:54.743Z,85.35
2018-12-03T21:09:24.702Z,85.46
2018-12-03T21:11:53.742Z,85.70
2018-12-03T21:14:22.783Z,86.67
2018-12-03T21:16:52.035Z,86.16
2018-12-03T21:19:20.725Z,86.66
2018-12-03T21:21:50.749Z,87.84
2018-12-03T21:24:22.047Z,86.68
2018-12-03T21:26:51.140Z,86.56
2018-12-03T21:29:19.818Z,86.90
2018-12-03T21:31:48.883Z,87.13
2018-12-03T21:34:18.061Z,87.90
2018-12-03T21:36:46.851Z,88.36
2018-12-03T21:39:16.253Z,89.06
2018-12-03T21:41:45.250Z,88.39
2018-12-03T21:44:14.259Z,89.11
2018-12-03T21:46:43.854Z,90.01
2018-12-03T21:49:12.617Z,89.81
2018-12-03T21:52:25.091Z,90.89
2018-12-03T21:54:53.517Z,91.02
2018-12-03T21:57:20.880Z,90.28
2018-12-03T21:59:48.187Z,90.05
2018-12-03T22:02:15.744Z,88.95
2018-12-03T22:04:44.152Z,89.21
2018-12-03T22:07:11.446Z,89.55
2018-12-03T22:09:38.778Z,88.96
2018-12-03T22:12:06.054Z,85.89
2018-12-03T22:14:33.610Z,86.77
2018-12-03T22:17:00.911Z,86.38
2018-12-03T22:19:28.211Z,86.49
2018-12-03T22:21:55.499Z,86.01
2018-12-03T22:24:22.827Z,86.31
2018-12-03T22:26:50.116Z,85.98
2018-12-03T22:29:17.412Z,85.88
2018-12-03T22:31:46.613Z,85.94
2018-12-03T22:34:13.931Z,85.79
2018-12-03T22:36:41.243Z,85.03
2018-12-03T22:39:08.551Z,85.80
2018-12-03T22:41:35.858Z,85.38
2018-12-03T22:44:03.178Z,85.57
2018-12-03T22:46:30.531Z,85.62
2018-12-03T22:48:57.965Z,86.10
2018-12-03T22:51:25.295Z,85.87
2018-12-03T22:53:52.635Z,85.80
2018-12-03T22:56:20.319Z,86.54
2018-12-03T22:58:47.602Z,87.54
2018-12-03T23:01:19.491Z,87.44
2018-12-03T23:03:47.129Z,86.60
2018-12-03T23:06:14.424Z,86.63
2018-12-03T23:08:41.868Z,87.55
2018-12-03T23:11:09.180Z,87.17
2018-12-03T23:13:36.511Z,86.83
2018-12-03T23:16:03.903Z,87.79
2018-12-03T23:18:31.383Z,87.32
2018-12-03T23:20:58.708Z,87.53
2018-12-03T23:23:43.015Z,87.90
2018-12-03T23:26:10.330Z,87.73
2018-12-03T23:28:37.638Z,87.88
2018-12-03T23:31:05.183Z,88.18
2018-12-03T23:33:32.516Z,88.51
2018-12-03T23:35:59.824Z,88.22
2018-12-03T23:38:27.546Z,87.72
2018-12-03T23:40:55.274Z,88.55
2018-12-03T23:43:22.578Z,88.50
2018-12-03T23:45:49.992Z,88.94
2018-12-03T23:48:17.435Z,89.60
2018-12-03T23:50:48.090Z,89.58
2018-12-03T23:53:17.754Z,90.01
2018-12-03T23:55:45.390Z,89.75
2018-12-03T23:58:13.398Z,89.93
